Time;durP1;ratioP1;P1;durP2;ratioP2;P2;SDS_P1;SDS_P2;PMS_P1;PMS_P2;Temp;Humidity;BMP_temperature;BMP_pressure;BME280_temperature;BME280_humidity;BME280_pressure;Samples;Min_cycle;Max_cycle;Signal;HPM_P1;HPM_P2
2023/11/09 00:01:22;;;;;;;3.83;1.70;;;7.60;99.90;;;;;;477593;249;28314;-73
2023/11/09 00:03:23;;;;;;;1.80;1.50;;;7.60;99.90;;;;;;477606;249;27991;-73
2023/11/09 00:05:25;;;;;;;2.17;1.80;;;7.60;99.90;;;;;;477581;249;28435;-72
2023/11/09 00:07:26;;;;;;;3.70;2.00;;;7.70;99.90;;;;;;477567;249;28928;-73
2023/11/09 00:09:27;;;;;;;2.33;1.93;;;7.60;99.90;;;;;;477601;249;28413;-73
2023/11/09 00:11:28;;;;;;;1.98;1.80;;;7.60;99.90;;;;;;477613;249;28824;-74
2023/11/09 00:13:30;;;;;;;2.13;1.70;;;7.60;99.90;;;;;;477550;249;27410;-74
2023/11/09 00:15:31;;;;;;;7.23;2.00;;;7.70;99.90;;;;;;477587;249;27812;-73
2023/11/09 00:17:32;;;;;;;3.00;1.93;;;7.60;99.90;;;;;;477704;249;28639;-73
2023/11/09 00:19:33;;;;;;;2.00;1.77;;;7.60;99.90;;;;;;477668;249;27988;-72
2023/11/09 00:21:35;;;;;;;1.60;1.50;;;7.60;99.90;;;;;;477717;249;28022;-74
2023/11/09 00:23:36;;;;;;;2.23;1.67;;;7.60;99.90;;;;;;477696;249;27913;-73
2023/11/09 00:25:37;;;;;;;1.90;1.40;;;7.60;99.90;;;;;;477655;249;27764;-73
2023/11/09 00:27:38;;;;;;;3.70;2.07;;;7.60;99.90;;;;;;477667;249;27785;-75
2023/11/09 00:29:40;;;;;;;3.23;1.90;;;7.60;99.90;;;;;;477516;249;27673;-73
2023/11/09 00:31:41;;;;;;;2.23;1.80;;;7.70;99.90;;;;;;477620;249;28540;-73
2023/11/09 00:33:43;;;;;;;2.00;1.40;;;7.70;99.90;;;;;;477568;249;30246;-73
2023/11/09 00:35:45;;;;;;;3.23;1.93;;;7.70;99.90;;;;;;477622;249;28314;-73
2023/11/09 00:37:45;;;;;;;4.20;1.87;;;7.80;99.90;;;;;;477463;249;28531;-73
2023/11/09 00:39:46;;;;;;;3.00;1.80;;;7.80;99.90;;;;;;477579;249;27896;-73
2023/11/09 00:41:47;;;;;;;2.83;1.80;;;7.80;99.90;;;;;;477587;249;27818;-73
2023/11/09 00:43:48;;;;;;;2.73;1.60;;;7.80;99.90;;;;;;477676;249;28890;-74
2023/11/09 00:45:50;;;;;;;4.53;1.43;;;7.80;99.90;;;;;;477695;249;27909;-73
2023/11/09 00:47:52;;;;;;;2.40;1.50;;;7.80;99.90;;;;;;477676;249;27572;-74
2023/11/09 00:49:53;;;;;;;1.53;1.40;;;7.90;99.90;;;;;;477659;249;27514;-73
2023/11/09 00:51:53;;;;;;;1.70;1.40;;;7.90;99.90;;;;;;477546;249;27661;-73
2023/11/09 00:53:55;;;;;;;1.93;1.67;;;7.80;99.90;;;;;;477617;249;28269;-74
2023/11/09 00:55:56;;;;;;;1.77;1.67;;;7.90;99.90;;;;;;477435;249;27969;-72
2023/11/09 00:57:57;;;;;;;1.50;1.40;;;7.90;99.90;;;;;;477421;249;27574;-73
2023/11/09 00:59:58;;;;;;;2.87;1.63;;;7.90;99.90;;;;;;477680;249;28072;-74
2023/11/09 01:02:00;;;;;;;1.50;1.40;;;8.00;99.90;;;;;;477660;249;28063;-74
2023/11/09 01:04:01;;;;;;;1.30;1.20;;;8.00;99.90;;;;;;477684;249;28035;-74
2023/11/09 01:06:05;;;;;;;1.43;1.37;;;8.00;99.90;;;;;;477604;249;28366;-73
2023/11/09 01:08:03;;;;;;;2.60;1.63;;;8.00;99.90;;;;;;477456;249;28405;-73
2023/11/09 01:10:05;;;;;;;2.50;1.80;;;7.90;99.90;;;;;;477639;249;28388;-73
2023/11/09 01:12:06;;;;;;;1.70;1.60;;;8.00;99.90;;;;;;477637;249;28373;-73
2023/11/09 01:14:07;;;;;;;1.43;1.30;;;7.90;99.90;;;;;;477585;249;28716;-73
2023/11/09 01:16:08;;;;;;;1.70;1.60;;;7.90;99.90;;;;;;477561;249;28873;-73
2023/11/09 01:18:11;;;;;;;2.23;1.40;;;7.90;99.90;;;;;;477583;249;27898;-74
2023/11/09 01:20:11;;;;;;;2.37;1.63;;;7.90;99.90;;;;;;477594;249;27944;-73
2023/11/09 01:22:12;;;;;;;1.70;1.50;;;7.90;99.90;;;;;;477688;249;27646;-73
2023/11/09 01:24:13;;;;;;;2.83;1.70;;;7.90;99.90;;;;;;477636;249;27911;-74
2023/11/09 01:26:15;;;;;;;1.70;1.60;;;7.80;99.90;;;;;;477681;249;27450;-73
2023/11/09 01:28:16;;;;;;;1.90;1.60;;;7.80;99.90;;;;;;477564;249;28097;-73
2023/11/09 01:30:17;;;;;;;2.00;1.57;;;7.80;99.90;;;;;;477626;249;28237;-74
2023/11/09 01:32:18;;;;;;;1.67;1.57;;;7.80;99.90;;;;;;477597;249;28003;-73
2023/11/09 01:34:20;;;;;;;1.50;1.40;;;7.80;99.90;;;;;;477583;249;27932;-73
2023/11/09 01:36:21;;;;;;;2.50;1.43;;;7.80;99.90;;;;;;477685;249;27471;-73
2023/11/09 01:38:25;;;;;;;1.83;1.60;;;7.80;99.90;;;;;;477631;249;28543;-73
2023/11/09 01:40:24;;;;;;;1.33;1.23;;;7.70;99.90;;;;;;477520;249;28422;-76
2023/11/09 01:42:25;;;;;;;1.50;1.40;;;7.80;99.90;;;;;;477701;249;28481;-74
2023/11/09 01:44:26;;;;;;;3.57;1.63;;;7.80;99.90;;;;;;477649;249;28279;-74
2023/11/09 01:46:27;;;;;;;1.90;1.67;;;7.90;99.90;;;;;;477599;249;28085;-73
2023/11/09 01:48:28;;;;;;;2.67;1.80;;;7.80;99.90;;;;;;477566;249;27883;-73
2023/11/09 01:50:30;;;;;;;1.80;1.20;;;7.80;99.90;;;;;;477700;249;27915;-74
2023/11/09 01:52:31;;;;;;;1.40;1.30;;;7.80;99.90;;;;;;477556;249;27778;-73
2023/11/09 01:54:32;;;;;;;1.70;1.60;;;7.80;99.90;;;;;;477577;249;27559;-73
2023/11/09 01:56:34;;;;;;;1.25;1.10;;;7.70;99.90;;;;;;477684;249;27882;-73
2023/11/09 01:58:35;;;;;;;3.40;1.60;;;7.70;99.90;;;;;;477613;249;27450;-74
2023/11/09 02:00:36;;;;;;;2.20;1.47;;;7.70;99.90;;;;;;477667;249;27678;-74
2023/11/09 02:02:37;;;;;;;1.20;1.10;;;7.80;99.90;;;;;;477477;249;27957;-73
2023/11/09 02:04:38;;;;;;;1.73;1.63;;;7.80;99.90;;;;;;477583;249;28129;-74
2023/11/09 02:06:40;;;;;;;1.47;1.37;;;7.70;99.90;;;;;;477695;249;27951;-75
2023/11/09 02:08:41;;;;;;;2.40;1.60;;;7.70;99.90;;;;;;477646;249;28102;-73
2023/11/09 02:10:42;;;;;;;1.50;1.40;;;7.80;99.90;;;;;;477668;249;27570;-74
2023/11/09 02:12:43;;;;;;;1.90;1.40;;;7.80;99.90;;;;;;477616;249;28461;-73
2023/11/09 02:14:45;;;;;;;2.20;1.77;;;7.70;99.90;;;;;;477547;249;28768;-73
2023/11/09 02:16:47;;;;;;;1.67;1.57;;;7.70;99.90;;;;;;477612;249;28548;-74
2023/11/09 02:18:47;;;;;;;1.70;1.60;;;7.70;99.90;;;;;;477602;249;29314;-73
2023/11/09 02:20:51;;;;;;;1.70;1.60;;;7.70;99.90;;;;;;477588;249;28892;-73
2023/11/09 02:22:50;;;;;;;1.97;1.63;;;7.70;99.90;;;;;;477482;249;27996;-73
2023/11/09 02:24:51;;;;;;;2.05;1.70;;;7.70;99.90;;;;;;477647;249;27808;-73
2023/11/09 02:26:52;;;;;;;1.53;1.40;;;7.70;99.90;;;;;;477658;245;27576;-75
2023/11/09 02:28:53;;;;;;;1.70;1.60;;;7.70;99.90;;;;;;477643;249;27840;-73
2023/11/09 02:30:55;;;;;;;6.90;1.60;;;7.70;99.90;;;;;;477597;249;27903;-73
2023/11/09 02:32:57;;;;;;;2.53;1.53;;;7.70;99.90;;;;;;477593;249;28016;-73
2023/11/09 02:34:57;;;;;;;1.37;1.27;;;7.80;99.90;;;;;;477669;249;27883;-73
2023/11/09 02:36:59;;;;;;;2.90;1.60;;;7.70;99.90;;;;;;477589;249;27805;-73
2023/11/09 02:39:00;;;;;;;2.17;1.47;;;7.80;99.90;;;;;;477636;249;27776;-73
2023/11/09 02:41:01;;;;;;;2.03;1.50;;;7.80;99.90;;;;;;477660;249;27599;-73
2023/11/09 02:43:03;;;;;;;2.20;1.90;;;7.80;99.90;;;;;;477558;249;27459;-75
2023/11/09 02:45:03;;;;;;;1.50;1.40;;;7.80;99.90;;;;;;477537;249;28125;-73
2023/11/09 02:47:05;;;;;;;1.33;1.23;;;7.90;99.90;;;;;;477581;249;28475;-73
2023/11/09 02:49:06;;;;;;;1.53;1.43;;;7.90;99.90;;;;;;477556;249;28652;-73
2023/11/09 02:51:07;;;;;;;1.77;1.67;;;7.80;99.90;;;;;;477586;249;28681;-73
2023/11/09 02:53:08;;;;;;;2.67;1.43;;;7.80;99.90;;;;;;477666;249;28204;-74
2023/11/09 02:55:10;;;;;;;1.70;1.60;;;7.80;99.90;;;;;;477649;249;28424;-74
2023/11/09 02:57:11;;;;;;;1.60;1.50;;;7.70;99.90;;;;;;477579;249;27935;-73
2023/11/09 02:59:12;;;;;;;2.93;1.70;;;7.70;99.90;;;;;;477562;249;27895;-74
2023/11/09 03:01:13;;;;;;;1.80;1.70;;;7.70;99.90;;;;;;477588;249;28008;-73
2023/11/09 03:03:15;;;;;;;2.03;1.60;;;7.80;99.90;;;;;;477579;249;28150;-74
2023/11/09 03:05:21;;;;;;;1.60;1.50;;;7.70;99.90;;;;;;477555;249;27778;-73
2023/11/09 03:07:17;;;;;;;4.03;1.47;;;7.80;99.90;;;;;;477171;249;28278;-73
2023/11/09 03:09:19;;;;;;;1.60;1.50;;;7.70;99.90;;;;;;477541;249;27626;-73
2023/11/09 03:11:20;;;;;;;1.70;1.60;;;7.70;99.90;;;;;;477581;249;28019;-73
2023/11/09 03:13:21;;;;;;;1.63;1.20;;;7.70;99.90;;;;;;477572;249;27800;-74
2023/11/09 03:15:22;;;;;;;1.83;1.60;;;7.70;99.90;;;;;;477574;249;27542;-73
2023/11/09 03:17:23;;;;;;;2.30;1.60;;;7.70;99.90;;;;;;477552;249;28616;-73
2023/11/09 03:19:25;;;;;;;1.40;1.30;;;7.70;99.90;;;;;;477561;249;28162;-77
2023/11/09 03:21:26;;;;;;;2.17;1.60;;;7.70;99.90;;;;;;477578;249;27582;-73
2023/11/09 03:23:27;;;;;;;2.60;1.60;;;7.70;99.90;;;;;;477639;249;28036;-73
2023/11/09 03:25:28;;;;;;;3.27;1.93;;;7.70;99.90;;;;;;477577;249;28260;-73
2023/11/09 03:27:30;;;;;;;2.53;2.00;;;7.70;99.90;;;;;;477659;249;28575;-73
2023/11/09 03:29:31;;;;;;;1.62;1.52;;;7.80;99.90;;;;;;477628;249;29304;-73
2023/11/09 03:31:34;;;;;;;2.03;1.70;;;7.90;99.90;;;;;;477587;249;28050;-73
2023/11/09 03:33:33;;;;;;;2.40;1.77;;;7.90;99.90;;;;;;477475;249;28083;-73
2023/11/09 03:35:35;;;;;;;2.07;1.50;;;7.90;99.90;;;;;;477570;249;27971;-73
2023/11/09 03:37:36;;;;;;;1.63;1.43;;;7.80;99.90;;;;;;477577;249;27519;-73
2023/11/09 03:39:37;;;;;;;2.00;1.70;;;7.70;99.90;;;;;;477562;249;28022;-73
2023/11/09 03:41:39;;;;;;;1.80;1.57;;;7.80;99.90;;;;;;477576;249;27661;-73
2023/11/09 03:43:40;;;;;;;1.80;1.70;;;7.70;99.90;;;;;;477641;249;27912;-73
2023/11/09 03:45:41;;;;;;;1.53;1.43;;;7.70;99.90;;;;;;477667;249;27912;-73
2023/11/09 03:47:42;;;;;;;1.70;1.60;;;7.70;99.90;;;;;;477586;249;28004;-73
2023/11/09 03:49:43;;;;;;;1.40;1.40;;;7.70;99.90;;;;;;477565;249;28804;-74
2023/11/09 03:51:45;;;;;;;2.10;1.63;;;7.70;99.90;;;;;;477588;249;27902;-73
2023/11/09 03:53:47;;;;;;;1.90;1.10;;;7.70;99.90;;;;;;477595;249;27946;-73
2023/11/09 03:55:47;;;;;;;1.80;1.70;;;7.60;99.90;;;;;;477645;249;28043;-75
2023/11/09 03:57:48;;;;;;;1.80;1.67;;;7.70;99.90;;;;;;477588;249;28484;-73
2023/11/09 03:59:50;;;;;;;1.97;1.77;;;7.80;99.90;;;;;;477580;249;29289;-73
2023/11/09 04:01:51;;;;;;;1.53;1.43;;;7.70;99.90;;;;;;477596;249;28450;-73
2023/11/09 04:03:52;;;;;;;3.60;2.17;;;7.70;99.90;;;;;;477670;249;27692;-73
2023/11/09 04:05:53;;;;;;;1.70;1.60;;;7.70;99.90;;;;;;477685;249;27689;-74
2023/11/09 04:07:55;;;;;;;1.70;1.60;;;7.70;99.90;;;;;;477668;249;28856;-73
2023/11/09 04:09:56;;;;;;;2.07;1.50;;;7.70;99.90;;;;;;477546;249;27947;-74
2023/11/09 04:11:57;;;;;;;1.70;1.60;;;7.70;99.90;;;;;;477559;249;27901;-73
2023/11/09 04:13:58;;;;;;;1.73;1.63;;;7.70;99.90;;;;;;477677;249;27791;-73
2023/11/09 04:16:00;;;;;;;2.90;1.50;;;7.70;99.90;;;;;;477638;249;28634;-74
2023/11/09 04:18:01;;;;;;;1.83;1.33;;;7.70;99.90;;;;;;477665;249;28014;-73
2023/11/09 04:20:02;;;;;;;1.60;1.50;;;7.70;99.90;;;;;;477653;249;27669;-74
2023/11/09 04:22:04;;;;;;;2.80;1.70;;;7.80;99.90;;;;;;477606;249;27447;-74
2023/11/09 04:24:06;;;;;;;4.83;1.80;;;7.80;99.90;;;;;;477619;249;27904;-74
2023/11/09 04:26:12;;;;;;;2.30;1.83;;;7.80;99.90;;;;;;477612;249;27731;-74
2023/11/09 04:28:08;;;;;;;2.03;1.60;;;7.90;99.90;;;;;;476910;249;28568;-73
2023/11/09 04:30:16;;;;;;;1.70;1.60;;;7.90;99.90;;;;;;477555;249;27923;-73
2023/11/09 04:32:13;;;;;;;1.80;1.70;;;8.00;99.90;;;;;;477185;249;27812;-74
2023/11/09 04:34:14;;;;;;;1.40;1.30;;;8.00;99.90;;;;;;477515;249;28283;-74
2023/11/09 04:36:17;;;;;;;3.40;1.90;;;8.10;99.90;;;;;;477629;249;27786;-74
2023/11/09 04:38:17;;;;;;;1.67;1.57;;;8.10;99.90;;;;;;477412;249;27911;-73
2023/11/09 04:40:21;;;;;;;2.33;1.70;;;8.20;99.90;;;;;;477540;249;28112;-73
2023/11/09 04:42:24;;;;;;;2.30;1.50;;;8.20;99.90;;;;;;477153;249;28007;-73
2023/11/09 04:44:23;;;;;;;1.97;1.63;;;8.20;99.90;;;;;;477396;249;27892;-73
2023/11/09 04:46:24;;;;;;;2.10;1.90;;;8.30;99.90;;;;;;477542;249;28025;-73
2023/11/09 04:48:31;;;;;;;1.40;1.33;;;8.30;99.90;;;;;;477514;249;27977;-73
2023/11/09 04:50:30;;;;;;;3.47;1.40;;;8.30;99.90;;;;;;477143;249;28084;-72
2023/11/09 04:52:31;;;;;;;1.70;1.60;;;8.30;99.90;;;;;;477553;249;28731;-74
2023/11/09 04:54:45;;;;;;;1.80;1.60;;;8.30;99.90;;;;;;477581;245;28633;-75
2023/11/09 04:56:52;;;;;;;2.60;2.17;;;8.30;99.90;;;;;;476594;249;27895;-73
2023/11/09 04:59:01;;;;;;;2.50;1.83;;;8.30;99.90;;;;;;476602;246;27559;-75
2023/11/09 05:07:50;;;;;;;2.90;1.80;;;8.40;99.90;;;;;;477575;249;28353;-73
2023/11/09 05:09:51;;;;;;;7.20;2.63;;;8.40;99.90;;;;;;477651;249;28404;-73
2023/11/09 05:11:53;;;;;;;1.63;1.53;;;8.40;99.90;;;;;;477447;249;28412;-74
2023/11/09 05:13:53;;;;;;;2.30;1.30;;;8.40;99.90;;;;;;477419;249;27786;-73
2023/11/09 05:15:55;;;;;;;2.83;1.47;;;8.40;99.90;;;;;;479308;245;27811;-73
2023/11/09 05:17:56;;;;;;;1.50;1.40;;;8.40;99.90;;;;;;484873;245;27988;-73
2023/11/09 05:19:57;;;;;;;1.40;1.30;;;8.40;99.90;;;;;;485023;245;28011;-73
2023/11/09 05:21:58;;;;;;;1.50;1.40;;;8.40;99.90;;;;;;484812;245;27964;-75
2023/11/09 05:24:00;;;;;;;1.70;1.40;;;8.40;99.90;;;;;;484931;245;27890;-73
2023/11/09 05:26:01;;;;;;;4.60;1.70;;;8.40;99.90;;;;;;485280;245;27932;-73
2023/11/09 05:28:03;;;;;;;1.43;1.33;;;8.40;99.90;;;;;;486015;245;27503;-73
2023/11/09 05:30:08;;;;;;;1.53;1.40;;;8.40;99.90;;;;;;477787;245;27603;-73
2023/11/09 05:32:08;;;;;;;1.30;1.20;;;8.40;99.90;;;;;;480266;247;27909;-74
2023/11/09 05:34:09;;;;;;;1.70;1.43;;;8.40;99.90;;;;;;480738;247;28331;-74
2023/11/09 05:36:10;;;;;;;1.70;1.40;;;8.40;99.90;;;;;;480789;247;28421;-73
2023/11/09 05:38:11;;;;;;;3.83;1.20;;;8.40;99.90;;;;;;480737;247;27937;-73
2023/11/09 05:40:12;;;;;;;1.70;1.60;;;8.40;99.90;;;;;;480662;245;27965;-73
2023/11/09 05:42:14;;;;;;;3.60;1.33;;;8.40;99.90;;;;;;480752;245;27870;-73
2023/11/09 05:44:16;;;;;;;1.63;1.37;;;8.30;99.90;;;;;;480664;245;27748;-74
2023/11/09 05:46:19;;;;;;;1.93;1.77;;;8.30;99.90;;;;;;480503;245;27656;-73
2023/11/09 05:48:17;;;;;;;2.20;1.53;;;8.20;99.90;;;;;;480426;247;27923;-73
2023/11/09 05:50:19;;;;;;;3.40;1.63;;;8.20;99.90;;;;;;480705;245;28473;-74
2023/11/09 05:52:20;;;;;;;1.90;1.30;;;8.20;99.90;;;;;;480757;245;27899;-74
2023/11/09 05:54:22;;;;;;;2.80;1.40;;;8.10;99.90;;;;;;480722;245;27819;-73
2023/11/09 05:56:28;;;;;;;1.93;1.40;;;8.00;99.90;;;;;;480740;245;27596;-73
2023/11/09 05:58:26;;;;;;;1.60;1.50;;;8.00;99.90;;;;;;480528;247;27880;-74
2023/11/09 06:00:28;;;;;;;1.73;1.60;;;8.00;99.90;;;;;;480610;245;27919;-74
2023/11/09 06:02:29;;;;;;;1.73;1.63;;;7.90;99.90;;;;;;480645;245;28028;-75
2023/11/09 06:04:30;;;;;;;2.63;1.67;;;7.90;99.90;;;;;;480638;245;27962;-74
2023/11/09 06:06:31;;;;;;;2.60;1.30;;;7.80;99.90;;;;;;480655;245;28361;-73
2023/11/09 06:08:34;;;;;;;2.50;1.60;;;7.80;99.90;;;;;;480664;245;28356;-73
2023/11/09 06:10:34;;;;;;;4.77;2.77;;;7.70;99.90;;;;;;480586;245;28334;-73
2023/11/09 06:12:40;;;;;;;10.10;5.70;;;7.70;99.90;;;;;;480671;245;28367;-74
2023/11/09 06:14:37;;;;;;;3.00;2.40;;;7.60;99.90;;;;;;480175;247;27877;-74
2023/11/09 06:16:39;;;;;;;3.90;1.87;;;7.60;99.90;;;;;;480675;245;27890;-74
2023/11/09 06:18:39;;;;;;;1.80;1.40;;;7.50;99.90;;;;;;480637;247;27673;-74
2023/11/09 06:20:41;;;;;;;4.50;1.80;;;7.60;99.90;;;;;;480720;245;27950;-74
2023/11/09 06:22:41;;;;;;;1.63;1.53;;;7.50;99.90;;;;;;480640;245;28042;-74
2023/11/09 06:24:43;;;;;;;2.20;1.73;;;7.50;99.90;;;;;;480668;245;28731;-73
2023/11/09 06:26:44;;;;;;;3.03;2.00;;;7.50;99.90;;;;;;480647;245;28031;-74
2023/11/09 06:28:45;;;;;;;1.50;1.40;;;7.50;99.90;;;;;;480694;245;27991;-74
2023/11/09 06:30:47;;;;;;;2.27;2.03;;;7.50;99.90;;;;;;480724;245;27880;-73
2023/11/09 06:32:48;;;;;;;2.20;1.57;;;7.50;99.90;;;;;;480970;243;27929;-74
2023/11/09 06:34:49;;;;;;;1.97;1.50;;;7.50;99.90;;;;;;488511;243;28179;-73
2023/11/09 06:36:50;;;;;;;1.60;1.40;;;7.50;99.90;;;;;;488516;243;28376;-74
2023/11/09 06:38:51;;;;;;;1.60;1.50;;;7.50;99.90;;;;;;488525;243;28272;-74
2023/11/09 06:40:53;;;;;;;2.47;1.80;;;7.50;99.90;;;;;;488510;243;28268;-74
2023/11/09 06:42:54;;;;;;;3.60;1.55;;;7.50;99.90;;;;;;488784;241;28007;-74
2023/11/09 06:44:55;;;;;;;1.67;1.57;;;7.50;99.90;;;;;;492874;241;27511;-74
2023/11/09 06:46:58;;;;;;;2.87;1.30;;;7.50;99.90;;;;;;492846;241;27812;-73
2023/11/09 06:48:58;;;;;;;2.80;1.83;;;7.50;99.90;;;;;;492813;241;27835;-73
2023/11/09 06:50:59;;;;;;;1.60;1.50;;;7.50;99.90;;;;;;492804;241;27965;-74
2023/11/09 06:53:00;;;;;;;3.23;1.80;;;7.50;99.90;;;;;;492833;241;27881;-74
2023/11/09 06:55:01;;;;;;;1.80;1.70;;;7.50;99.90;;;;;;492838;241;27631;-74
2023/11/09 06:57:03;;;;;;;1.83;1.60;;;7.50;99.90;;;;;;492839;241;28154;-74
2023/11/09 06:59:04;;;;;;;2.73;1.60;;;7.50;99.90;;;;;;492791;241;27746;-74
2023/11/09 07:01:05;;;;;;;1.70;1.60;;;7.50;99.90;;;;;;492828;241;27793;-74
2023/11/09 07:03:07;;;;;;;1.70;1.60;;;7.50;99.90;;;;;;492742;241;28236;-74
2023/11/09 07:05:08;;;;;;;2.73;1.87;;;7.50;99.90;;;;;;492783;241;27878;-76
2023/11/09 07:07:10;;;;;;;3.07;1.80;;;7.50;99.90;;;;;;492795;241;28073;-74
2023/11/09 07:09:12;;;;;;;1.70;1.60;;;7.60;99.90;;;;;;492393;241;27672;-74
2023/11/09 07:11:11;;;;;;;2.33;1.67;;;7.50;99.90;;;;;;492708;241;28562;-73
2023/11/09 07:13:13;;;;;;;2.63;1.83;;;7.60;99.90;;;;;;492811;241;28631;-74
2023/11/09 07:15:14;;;;;;;1.87;1.60;;;7.60;99.90;;;;;;492837;241;29062;-75
2023/11/09 07:17:15;;;;;;;1.50;1.40;;;7.60;99.90;;;;;;492815;241;27468;-74
2023/11/09 07:19:16;;;;;;;4.37;1.40;;;7.60;99.90;;;;;;492899;241;28135;-74
2023/11/09 07:21:20;;;;;;;3.47;1.53;;;7.60;99.90;;;;;;492926;241;27999;-73
2023/11/09 07:23:24;;;;;;;2.33;1.47;;;7.60;99.90;;;;;;492807;241;27948;-75
2023/11/09 07:25:20;;;;;;;2.17;1.97;;;7.70;99.90;;;;;;492611;241;27820;-74
2023/11/09 07:27:22;;;;;;;3.43;1.93;;;7.70;99.90;;;;;;492908;241;27602;-73
2023/11/09 07:29:23;;;;;;;3.60;1.70;;;7.70;99.90;;;;;;492561;241;28078;-74
2023/11/09 07:31:25;;;;;;;2.80;1.60;;;7.60;99.90;;;;;;492709;241;28423;-73
2023/11/09 07:33:25;;;;;;;2.10;1.50;;;7.70;99.90;;;;;;492686;241;27499;-73
2023/11/09 07:35:28;;;;;;;1.60;1.50;;;7.60;99.90;;;;;;492777;241;27842;-74
2023/11/09 07:37:28;;;;;;;1.77;1.50;;;7.70;99.90;;;;;;492698;241;27994;-74
2023/11/09 07:39:29;;;;;;;1.63;1.53;;;7.70;99.90;;;;;;492755;241;27999;-74
2023/11/09 07:41:30;;;;;;;2.00;1.80;;;7.70;99.90;;;;;;492807;241;28200;-75
2023/11/09 07:43:31;;;;;;;6.10;1.50;;;7.70;99.90;;;;;;492812;241;27489;-74
2023/11/09 07:45:33;;;;;;;3.53;1.70;;;7.70;99.90;;;;;;492737;241;28548;-74
2023/11/09 07:47:34;;;;;;;1.60;1.50;;;7.70;99.90;;;;;;492798;241;27906;-74
2023/11/09 07:49:35;;;;;;;2.40;1.40;;;7.70;99.90;;;;;;492806;241;28556;-75
2023/11/09 07:51:37;;;;;;;2.00;1.80;;;7.70;99.90;;;;;;492931;241;28607;-74
2023/11/09 07:53:38;;;;;;;3.43;1.60;;;7.70;99.90;;;;;;492862;241;28436;-74
2023/11/09 07:55:39;;;;;;;1.43;1.33;;;7.70;99.90;;;;;;492882;241;28333;-74
2023/11/09 07:57:40;;;;;;;1.30;1.20;;;7.70;99.90;;;;;;492797;241;28035;-73
2023/11/09 07:59:45;;;;;;;2.53;1.50;;;7.70;99.90;;;;;;492816;241;28024;-74
2023/11/09 08:01:43;;;;;;;2.17;1.47;;;7.70;99.90;;;;;;492696;241;27963;-74
2023/11/09 08:03:45;;;;;;;1.67;1.43;;;7.70;99.90;;;;;;492831;241;27774;-74
2023/11/09 08:05:46;;;;;;;2.70;1.63;;;7.70;99.90;;;;;;492860;241;27960;-74
2023/11/09 08:07:46;;;;;;;3.07;1.47;;;7.80;99.90;;;;;;492783;241;28138;-75
2023/11/09 08:09:48;;;;;;;2.07;1.50;;;7.80;99.90;;;;;;492639;241;27635;-73
2023/11/09 08:11:49;;;;;;;1.50;1.40;;;7.80;99.90;;;;;;492764;241;28109;-74
2023/11/09 08:13:50;;;;;;;1.47;1.37;;;7.80;99.90;;;;;;492860;241;28167;-74
2023/11/09 08:15:51;;;;;;;1.90;1.30;;;7.80;99.90;;;;;;492834;241;27857;-73
2023/11/09 08:17:53;;;;;;;1.50;1.40;;;7.90;99.90;;;;;;492828;241;27763;-75
2023/11/09 08:19:54;;;;;;;3.03;1.60;;;7.80;99.90;;;;;;492890;241;28096;-73
2023/11/09 08:21:56;;;;;;;2.10;1.70;;;7.80;99.90;;;;;;492742;241;28032;-74
2023/11/09 08:23:56;;;;;;;2.07;1.87;;;7.90;99.90;;;;;;492855;241;28032;-74
2023/11/09 08:25:58;;;;;;;1.93;1.60;;;7.90;99.90;;;;;;492863;241;28589;-73
2023/11/09 08:27:59;;;;;;;1.40;1.30;;;7.90;99.90;;;;;;492875;241;28475;-75
2023/11/09 08:30:00;;;;;;;3.50;1.50;;;7.90;99.90;;;;;;492796;241;28423;-74
2023/11/09 08:32:04;;;;;;;1.43;1.30;;;7.90;99.90;;;;;;492906;241;28468;-74
2023/11/09 08:34:08;;;;;;;3.23;1.40;;;7.90;99.90;;;;;;492772;241;28469;-73
2023/11/09 08:36:10;;;;;;;1.43;1.33;;;7.90;99.90;;;;;;492713;241;29970;-74
2023/11/09 08:38:08;;;;;;;1.77;1.67;;;8.00;99.90;;;;;;492617;241;27852;-73
2023/11/09 08:40:18;;;;;;;1.83;1.50;;;8.00;99.90;;;;;;492772;241;28002;-74
2023/11/09 08:42:20;;;;;;;1.73;1.30;;;8.00;99.90;;;;;;492816;241;28099;-75
2023/11/09 08:44:20;;;;;;;1.60;1.50;;;8.00;99.90;;;;;;492813;241;27959;-72
2023/11/09 08:46:23;;;;;;;1.60;1.50;;;8.00;99.90;;;;;;492782;241;27881;-73
2023/11/09 08:48:25;;;;;;;1.60;1.50;;;8.00;99.90;;;;;;492580;241;28031;-75
2023/11/09 08:50:24;;;;;;;2.43;1.53;;;8.00;99.90;;;;;;492580;241;28041;-73
2023/11/09 08:52:27;;;;;;;1.73;1.63;;;8.00;99.90;;;;;;492685;241;27986;-74
2023/11/09 08:54:28;;;;;;;1.57;1.47;;;8.00;99.90;;;;;;492632;241;27664;-74
2023/11/09 08:56:28;;;;;;;1.93;1.30;;;8.00;99.90;;;;;;492679;241;28022;-74
2023/11/09 08:58:31;;;;;;;2.40;1.37;;;8.10;99.90;;;;;;492744;241;28559;-75
2023/11/09 09:00:32;;;;;;;1.73;1.50;;;8.00;99.90;;;;;;492755;241;28593;-74
2023/11/09 09:02:32;;;;;;;1.50;1.40;;;8.00;99.90;;;;;;492757;241;28339;-74
2023/11/09 09:04:34;;;;;;;1.80;1.40;;;8.00;99.90;;;;;;492767;241;27912;-73
2023/11/09 09:06:34;;;;;;;1.67;1.57;;;8.10;99.90;;;;;;492820;241;27987;-74
2023/11/09 09:08:35;;;;;;;1.77;1.67;;;8.10;99.90;;;;;;492803;241;28084;-75
2023/11/09 09:10:37;;;;;;;1.60;1.50;;;8.10;99.90;;;;;;492718;240;28059;-73
2023/11/09 09:12:38;;;;;;;3.57;1.83;;;8.10;99.90;;;;;;492846;241;27994;-73
2023/11/09 09:14:39;;;;;;;1.77;1.60;;;8.20;99.90;;;;;;492675;241;28096;-73
2023/11/09 09:16:40;;;;;;;1.30;1.20;;;8.20;99.90;;;;;;492573;241;28065;-73
2023/11/09 09:18:42;;;;;;;3.47;2.63;;;8.20;99.90;;;;;;492717;241;27973;-74
2023/11/09 09:20:43;;;;;;;1.50;1.40;;;8.20;99.90;;;;;;492812;241;28050;-73
2023/11/09 09:22:45;;;;;;;1.40;1.30;;;8.30;99.90;;;;;;492786;241;27515;-73
2023/11/09 09:24:45;;;;;;;1.77;1.30;;;8.30;99.90;;;;;;492869;241;27712;-73
2023/11/09 09:26:47;;;;;;;1.73;1.53;;;8.30;99.90;;;;;;492771;241;28087;-73
2023/11/09 09:28:48;;;;;;;1.43;1.30;;;8.30;99.90;;;;;;492778;241;28007;-74
2023/11/09 09:30:49;;;;;;;1.40;1.30;;;8.40;99.90;;;;;;492744;241;27713;-73
2023/11/09 09:32:50;;;;;;;1.90;1.20;;;8.40;99.90;;;;;;492749;241;28542;-73
2023/11/09 09:34:52;;;;;;;3.47;1.50;;;8.40;99.90;;;;;;492604;241;28607;-74
2023/11/09 09:36:55;;;;;;;1.47;1.37;;;8.40;99.90;;;;;;492845;241;28400;-74
2023/11/09 09:38:56;;;;;;;1.87;1.40;;;8.40;99.90;;;;;;492720;241;28017;-73
2023/11/09 09:40:55;;;;;;;1.90;1.20;;;8.40;99.90;;;;;;492749;241;28153;-73
2023/11/09 09:42:57;;;;;;;1.60;1.50;;;8.40;99.90;;;;;;492829;241;27633;-73
2023/11/09 09:44:58;;;;;;;1.63;1.20;;;8.40;99.90;;;;;;492917;241;27760;-74
2023/11/09 09:47:01;;;;;;;1.53;1.43;;;8.40;99.90;;;;;;492835;241;28071;-74
2023/11/09 09:49:03;;;;;;;1.50;1.40;;;8.40;99.90;;;;;;492678;241;27911;-73
2023/11/09 09:51:05;;;;;;;1.40;1.30;;;8.50;99.90;;;;;;492658;241;27942;-73
2023/11/09 09:53:03;;;;;;;1.77;1.40;;;8.50;99.90;;;;;;492580;241;27841;-74
2023/11/09 09:55:05;;;;;;;1.27;1.27;;;8.50;99.90;;;;;;492759;241;28005;-75
2023/11/09 09:57:05;;;;;;;1.33;1.33;;;8.50;99.90;;;;;;492864;240;28030;-73
2023/11/09 09:59:07;;;;;;;1.33;1.23;;;8.50;99.90;;;;;;492788;241;28007;-73
2023/11/09 10:01:08;;;;;;;1.40;1.30;;;8.50;99.90;;;;;;492903;241;27871;-74
2023/11/09 10:03:11;;;;;;;1.20;1.10;;;8.50;99.90;;;;;;492865;241;27876;-73
2023/11/09 10:05:14;;;;;;;1.87;1.10;;;8.60;99.90;;;;;;492747;241;28128;-76
2023/11/09 10:07:12;;;;;;;1.20;1.10;;;8.50;99.90;;;;;;492733;241;27711;-74
2023/11/09 10:09:14;;;;;;;1.47;1.40;;;8.60;99.90;;;;;;492865;241;27749;-74
2023/11/09 10:11:15;;;;;;;1.47;1.23;;;8.60;99.90;;;;;;492776;241;28568;-74
2023/11/09 10:13:20;;;;;;;1.50;1.40;;;8.60;99.90;;;;;;492763;241;28052;-73
2023/11/09 10:15:20;;;;;;;1.67;1.57;;;8.60;99.90;;;;;;492748;241;27864;-75
2023/11/09 10:17:22;;;;;;;1.40;1.30;;;8.60;99.90;;;;;;492874;241;27735;-74
2023/11/09 10:19:22;;;;;;;1.47;1.40;;;8.60;99.90;;;;;;492734;241;28013;-73
2023/11/09 10:21:25;;;;;;;2.13;2.03;;;8.60;99.90;;;;;;492849;240;27923;-73
2023/11/09 10:23:26;;;;;;;1.40;1.30;;;8.60;99.90;;;;;;492681;241;28088;-75
2023/11/09 10:25:29;;;;;;;2.77;2.67;;;8.60;99.90;;;;;;492835;241;27596;-74
2023/11/09 10:27:30;;;;;;;4.00;2.10;;;8.60;99.90;;;;;;492795;241;28004;-73
2023/11/09 10:29:31;;;;;;;1.90;1.80;;;8.60;99.90;;;;;;492770;241;28006;-74
2023/11/09 10:31:32;;;;;;;4.03;1.60;;;8.70;99.90;;;;;;492753;241;28122;-74
2023/11/09 10:33:34;;;;;;;1.70;1.60;;;8.60;99.90;;;;;;492781;241;28180;-74
2023/11/09 10:35:35;;;;;;;4.57;1.70;;;8.60;99.90;;;;;;492730;241;28124;-74
2023/11/09 10:37:37;;;;;;;8.90;2.07;;;8.70;99.90;;;;;;492766;241;28189;-73
2023/11/09 10:39:42;;;;;;;1.73;1.50;;;8.70;99.90;;;;;;492807;241;28181;-74
2023/11/09 10:41:39;;;;;;;1.53;1.43;;;8.70;99.90;;;;;;492522;241;28811;-73
2023/11/09 10:43:41;;;;;;;1.87;1.77;;;8.70;99.90;;;;;;492798;241;27947;-75
2023/11/09 10:45:42;;;;;;;2.30;2.10;;;8.80;99.90;;;;;;492812;241;28114;-74
2023/11/09 10:47:45;;;;;;;2.20;1.60;;;8.80;99.90;;;;;;492749;241;27810;-74